createdAt,value
2022-10-22T00:01:27.395Z,95440.97
2022-10-22T00:03:55.834Z,95439.44
2022-10-22T00:06:25.180Z,95443.78
2022-10-22T00:08:52.981Z,95419.59
2022-10-22T00:11:21.415Z,95441.50
2022-10-22T00:13:49.749Z,95428.41
2022-10-22T00:16:17.624Z,95449.06
2022-10-22T00:18:45.239Z,95443.03
2022-10-22T00:21:13.247Z,95437.53
2022-10-22T00:23:43.564Z,95426.63
2022-10-22T00:26:11.764Z,95433.66
2022-10-22T00:28:40.076Z,95430.22
2022-10-22T00:31:09.809Z,95434.22
2022-10-22T00:33:37.408Z,95426.66
2022-10-22T00:36:05.483Z,95422.66
2022-10-22T00:38:33.783Z,95423.94
2022-10-22T00:41:02.865Z,95421.00
2022-10-22T00:43:30.595Z,95415.47
2022-10-22T00:45:58.397Z,95411.59
2022-10-22T00:48:29.123Z,95423.06
2022-10-22T00:51:00.627Z,95420.72
2022-10-22T00:53:33.214Z,95413.66
2022-10-22T00:56:02.470Z,95413.09
2022-10-22T00:58:34.480Z,95411.19
2022-10-22T01:01:03.266Z,95412.25
2022-10-22T01:03:30.849Z,95420.59
2022-10-22T01:06:01.019Z,95423.47
2022-10-22T01:08:47.939Z,95404.63
2022-10-22T01:11:25.592Z,95420.72
2022-10-22T01:14:03.204Z,95430.91
2022-10-22T01:16:38.325Z,95427.75
2022-10-22T01:19:31.386Z,95429.09
2022-10-22T01:22:05.206Z,95426.97
2022-10-22T01:24:41.142Z,95430.09
2022-10-22T01:27:22.224Z,95429.03
2022-10-22T01:29:54.197Z,95430.09
2022-10-22T01:32:27.307Z,95407.75
2022-10-22T01:35:02.758Z,95429.34
2022-10-22T01:37:35.566Z,95432.22
2022-10-22T01:40:04.954Z,95425.63
2022-10-22T01:42:32.711Z,95424.84
2022-10-22T01:45:02.018Z,95424.34
2022-10-22T01:47:41.585Z,95416.75
2022-10-22T01:50:31.594Z,95415.88
2022-10-22T01:53:14.584Z,95409.34
2022-10-22T01:55:49.808Z,95416.44
2022-10-22T01:58:31.037Z,95398.22
2022-10-22T02:01:07.741Z,95412.97
2022-10-22T02:03:42.480Z,95409.34
2022-10-22T02:06:15.607Z,95419.63
2022-10-22T02:08:45.071Z,95404.44
2022-10-22T02:11:14.193Z,95422.28
2022-10-22T02:13:45.344Z,95419.16
2022-10-22T02:16:18.363Z,95399.94
2022-10-22T02:18:48.510Z,95416.09
2022-10-22T02:21:17.055Z,95427.09
2022-10-22T02:23:45.126Z,95403.88
2022-10-22T02:26:20.388Z,95420.78
2022-10-22T02:28:56.428Z,95425.34
2022-10-22T02:31:28.507Z,95424.19
2022-10-22T02:33:59.823Z,95427.50
2022-10-22T02:36:28.445Z,95425.94
2022-10-22T02:38:58.774Z,95433.75
2022-10-22T02:41:31.341Z,95441.84
2022-10-22T02:44:09.007Z,95447.03
2022-10-22T02:46:38.813Z,95450.66
2022-10-22T02:49:06.314Z,95443.75
2022-10-22T02:51:33.799Z,95449.25
2022-10-22T02:54:01.268Z,95448.50
2022-10-22T02:56:28.698Z,95436.72
2022-10-22T02:58:56.469Z,95433.28
2022-10-22T03:01:24.369Z,95445.81
2022-10-22T03:03:53.245Z,95445.53
2022-10-22T03:06:20.741Z,95441.22
2022-10-22T03:08:48.271Z,95440.47
2022-10-22T03:11:15.778Z,95443.34
2022-10-22T03:13:43.193Z,95446.59
2022-10-22T03:16:10.696Z,95437.47
2022-10-22T03:18:38.139Z,95441.47
2022-10-22T03:21:12.154Z,95440.97
2022-10-22T03:23:41.240Z,95447.53
2022-10-22T03:26:09.818Z,95444.19
2022-10-22T03:28:38.771Z,95444.97
2022-10-22T03:31:06.470Z,95449.66
2022-10-22T03:33:33.882Z,95451.72
2022-10-22T03:36:01.933Z,95452.72
2022-10-22T03:38:31.275Z,95452.00
2022-10-22T03:40:59.494Z,95460.41
2022-10-22T03:43:27.221Z,95459.19
2022-10-22T03:45:54.732Z,95474.16
2022-10-22T03:48:22.358Z,95473.38
2022-10-22T03:50:50.535Z,95495.16
2022-10-22T03:53:18.000Z,95485.19
2022-10-22T03:55:47.593Z,95481.28
2022-10-22T03:58:15.025Z,95487.63
2022-10-22T04:00:42.481Z,95493.44
2022-10-22T04:03:09.974Z,95497.34
2022-10-22T04:05:37.388Z,95474.69
2022-10-22T04:08:05.283Z,95491.16
2022-10-22T04:10:32.909Z,95499.84
2022-10-22T04:13:01.796Z,95485.00
2022-10-22T04:15:29.262Z,95494.44
2022-10-22T04:17:56.935Z,95485.63
2022-10-22T04:20:24.355Z,95492.09
2022-10-22T04:22:51.776Z,95505.19
2022-10-22T04:25:19.190Z,95511.53
2022-10-22T04:27:46.684Z,95518.06
2022-10-22T04:30:16.024Z,95525.91
2022-10-22T04:32:43.425Z,95521.22
2022-10-22T04:35:10.855Z,95521.00
2022-10-22T04:37:38.605Z,95522.28
2022-10-22T04:40:07.561Z,95512.88
2022-10-22T04:42:34.963Z,95515.50
2022-10-22T04:45:02.390Z,95507.22
2022-10-22T04:47:31.170Z,95512.97
2022-10-22T04:49:58.572Z,95503.84
2022-10-22T04:52:26.017Z,95501.53
2022-10-22T04:54:53.433Z,95497.09
2022-10-22T04:57:20.838Z,95500.50
2022-10-22T04:59:48.252Z,95508.38
2022-10-22T05:02:15.771Z,95474.53
2022-10-22T05:04:45.994Z,95513.13
2022-10-22T05:07:13.501Z,95507.75
2022-10-22T05:09:40.905Z,95521.31
2022-10-22T05:12:08.505Z,95525.78
2022-10-22T05:14:35.902Z,95520.03
2022-10-22T05:17:03.331Z,95521.63
2022-10-22T05:19:33.193Z,95528.41
2022-10-22T05:22:03.738Z,95533.91
2022-10-22T05:24:32.716Z,95533.66
2022-10-22T05:27:00.876Z,95538.13
2022-10-22T05:29:28.479Z,95510.19
2022-10-22T05:31:56.215Z,95514.66
2022-10-22T05:34:23.796Z,95537.63
2022-10-22T05:36:51.282Z,95545.19
2022-10-22T05:39:20.088Z,95531.34
2022-10-22T05:41:47.518Z,95541.50
2022-10-22T05:44:14.987Z,95547.03
2022-10-22T05:46:43.465Z,95516.78
2022-10-22T05:49:14.009Z,95540.25
2022-10-22T05:51:41.605Z,95550.41
2022-10-22T05:54:10.912Z,95541.56
2022-10-22T05:56:39.685Z,95549.66
2022-10-22T05:59:07.110Z,95555.13
2022-10-22T06:01:36.111Z,95547.59
2022-10-22T06:04:06.614Z,95566.41
2022-10-22T06:06:35.725Z,95575.81
2022-10-22T06:09:06.204Z,95579.19
2022-10-22T06:11:35.176Z,95575.53
2022-10-22T06:14:04.775Z,95575.28
2022-10-22T06:16:33.315Z,95584.16
2022-10-22T06:19:01.767Z,95571.88
2022-10-22T06:21:29.947Z,95566.91
2022-10-22T06:23:58.051Z,95577.59
2022-10-22T06:26:25.716Z,95561.16
2022-10-22T06:28:53.310Z,95578.41
2022-10-22T06:31:22.097Z,95582.81
2022-10-22T06:33:49.529Z,95582.56
2022-10-22T06:36:19.498Z,95593.03
2022-10-22T06:38:47.063Z,95591.47
2022-10-22T06:41:16.606Z,95606.06
2022-10-22T06:43:46.736Z,95608.16
2022-10-22T06:46:19.857Z,95600.34
2022-10-22T06:48:53.191Z,95600.88
2022-10-22T06:51:21.006Z,95593.78
2022-10-22T06:53:48.496Z,95594.28
2022-10-22T06:56:18.691Z,95601.88
2022-10-22T06:58:48.375Z,95614.66
2022-10-22T07:01:18.227Z,95605.28
2022-10-22T07:03:45.765Z,95571.09
2022-10-22T07:06:15.580Z,95594.81
2022-10-22T07:08:43.609Z,95613.28
2022-10-22T07:11:13.307Z,95612.75
2022-10-22T07:13:41.159Z,95612.75
2022-10-22T07:16:09.895Z,95619.56
2022-10-22T07:18:38.168Z,95625.56
2022-10-22T07:21:06.488Z,95622.66
2022-10-22T07:23:35.308Z,95628.91
2022-10-22T07:26:03.414Z,95612.22
2022-10-22T07:28:32.470Z,95643.50
2022-10-22T07:30:59.928Z,95616.06
2022-10-22T07:33:28.304Z,95647.13
2022-10-22T07:36:00.369Z,95648.72
2022-10-22T07:38:28.286Z,95653.91
2022-10-22T07:40:57.084Z,95655.44
2022-10-22T07:43:25.041Z,95646.88
2022-10-22T07:45:52.664Z,95658.63
2022-10-22T07:48:20.078Z,95647.59
2022-10-22T07:50:47.509Z,95674.56
2022-10-22T07:53:14.943Z,95673.16
2022-10-22T07:55:42.431Z,95682.31
2022-10-22T07:58:11.213Z,95676.47
2022-10-22T08:00:38.622Z,95674.59
2022-10-22T08:03:06.040Z,95690.19
2022-10-22T08:05:33.483Z,95689.31
2022-10-22T08:08:01.074Z,95698.50
2022-10-22T08:10:28.479Z,95697.53
2022-10-22T08:12:56.144Z,95714.25
2022-10-22T08:15:25.534Z,95712.41
2022-10-22T08:17:53.030Z,95708.19
2022-10-22T08:20:20.739Z,95711.28
2022-10-22T08:22:48.406Z,95700.56
2022-10-22T08:25:17.923Z,95715.44
2022-10-22T08:27:46.121Z,95711.72
2022-10-22T08:30:14.590Z,95712.53
2022-10-22T08:32:43.684Z,95721.13
2022-10-22T08:35:14.084Z,95727.94
2022-10-22T08:37:44.451Z,95731.34
2022-10-22T08:40:20.208Z,95730.25
2022-10-22T08:43:29.363Z,95736.63
2022-10-22T08:46:08.518Z,95737.41
2022-10-22T08:48:45.176Z,95747.66
2022-10-22T08:51:15.902Z,95744.19
2022-10-22T08:53:54.473Z,95749.22
2022-10-22T08:56:24.683Z,95749.47
2022-10-22T08:58:56.779Z,95759.94
2022-10-22T09:01:33.891Z,95756.00
2022-10-22T09:04:10.197Z,95754.94
2022-10-22T09:06:41.085Z,95764.34
2022-10-22T09:09:13.407Z,95760.03
2022-10-22T09:11:44.260Z,95778.38
2022-10-22T09:17:06.297Z,95784.88
2022-10-22T09:19:43.807Z,95779.84
2022-10-22T09:22:23.585Z,95783.53
2022-10-22T09:24:57.937Z,95785.59
2022-10-22T09:27:29.862Z,95790.09
2022-10-22T09:29:57.626Z,95789.75
2022-10-22T09:32:26.313Z,95785.00
2022-10-22T09:34:57.936Z,95772.94
2022-10-22T09:37:28.293Z,95796.25
2022-10-22T09:39:58.838Z,95789.16
2022-10-22T09:42:26.553Z,95792.69
2022-10-22T09:44:56.039Z,95799.44
2022-10-22T09:47:43.339Z,95806.47
2022-10-22T09:50:30.115Z,95808.19
2022-10-22T09:53:05.117Z,95813.72
2022-10-22T09:55:33.321Z,95820.44
2022-10-22T09:58:01.602Z,95814.69
2022-10-22T10:00:30.593Z,95818.66
2022-10-22T10:02:59.694Z,95770.88
2022-10-22T10:05:30.913Z,95823.41
2022-10-22T10:07:59.312Z,95833.84
2022-10-22T10:10:34.999Z,95821.81
2022-10-22T10:13:15.763Z,95828.59
2022-10-22T10:15:52.935Z,95833.59
2022-10-22T10:18:33.264Z,95839.09
2022-10-22T10:21:10.510Z,95851.94
2022-10-22T10:23:46.021Z,95840.66
2022-10-22T10:26:21.159Z,95846.16
2022-10-22T10:29:01.073Z,95849.63
2022-10-22T10:31:40.843Z,95865.22
2022-10-22T10:34:21.501Z,95852.97
2022-10-22T10:36:57.781Z,95852.47
2022-10-22T10:39:31.047Z,95864.50
2022-10-22T10:42:07.334Z,95845.38
2022-10-22T10:44:53.043Z,95851.88
2022-10-22T10:47:38.775Z,95862.22
2022-10-22T10:50:21.101Z,95855.91
2022-10-22T10:53:02.220Z,95859.00
2022-10-22T10:55:33.147Z,95862.84
2022-10-22T10:58:12.312Z,95864.94
2022-10-22T11:00:48.251Z,95868.81
2022-10-22T11:03:41.416Z,95862.75
2022-10-22T11:06:12.547Z,95852.78
2022-10-22T11:08:45.967Z,95861.81
2022-10-22T11:11:19.410Z,95853.41
2022-10-22T11:13:53.104Z,95862.13
2022-10-22T11:16:24.313Z,95861.69
2022-10-22T11:18:57.585Z,95864.00
2022-10-22T11:21:30.475Z,95866.03
2022-10-22T11:24:10.257Z,95861.72
2022-10-22T11:26:43.879Z,95870.88
2022-10-22T11:29:16.151Z,95862.06
2022-10-22T11:31:44.697Z,95865.69
2022-10-22T11:34:33.133Z,95858.50
2022-10-22T11:37:02.519Z,95854.63
2022-10-22T11:39:36.009Z,95863.09
2022-10-22T11:42:06.253Z,95870.25
2022-10-22T11:44:47.207Z,95865.09
2022-10-22T11:47:20.778Z,95867.94
2022-10-22T11:49:58.662Z,95868.78
2022-10-22T11:52:38.023Z,95874.31
2022-10-22T11:55:31.368Z,95872.53
2022-10-22T11:58:01.364Z,95862.75
2022-10-22T12:00:41.554Z,95863.38
2022-10-22T12:03:18.007Z,95854.56
2022-10-22T12:05:46.444Z,95850.38
2022-10-22T12:08:21.076Z,95847.00
2022-10-22T12:11:01.245Z,95850.34
2022-10-22T12:13:31.304Z,95848.09
2022-10-22T12:16:02.387Z,95853.38
2022-10-22T12:18:36.083Z,95844.84
2022-10-22T12:21:03.570Z,95851.31
2022-10-22T12:23:32.931Z,95848.75
2022-10-22T12:26:02.345Z,95844.22
2022-10-22T12:28:29.735Z,95839.00
2022-10-22T12:31:00.248Z,95847.41
2022-10-22T12:33:28.115Z,95842.84
2022-10-22T12:35:57.556Z,95841.06
2022-10-22T12:38:26.409Z,95832.56
2022-10-22T12:40:56.892Z,95828.50
2022-10-22T12:43:28.930Z,95840.59
2022-10-22T12:45:58.439Z,95841.44
2022-10-22T12:48:29.143Z,95839.72
2022-10-22T12:51:00.105Z,95840.13
2022-10-22T12:53:31.533Z,95829.97
2022-10-22T12:56:03.392Z,95835.44
2022-10-22T12:58:39.120Z,95839.56
2022-10-22T13:01:07.071Z,95836.66
2022-10-22T13:03:41.302Z,95833.03
2022-10-22T13:06:23.770Z,95839.38
2022-10-22T13:09:08.023Z,95836.44
2022-10-22T13:11:41.294Z,95839.38
2022-10-22T13:14:21.191Z,95825.00
2022-10-22T13:17:04.620Z,95829.97
2022-10-22T13:19:41.677Z,95823.72
2022-10-22T13:22:39.941Z,95823.97
2022-10-22T13:25:29.089Z,95826.69
2022-10-22T13:27:58.665Z,95821.22
2022-10-22T13:30:30.094Z,95808.59
2022-10-22T13:32:59.472Z,95828.94
2022-10-22T13:35:28.940Z,95818.59
2022-10-22T13:37:56.397Z,95821.03
2022-10-22T13:40:23.827Z,95817.00
2022-10-22T13:42:51.381Z,95824.31
2022-10-22T13:45:19.184Z,95813.69
2022-10-22T13:47:52.893Z,95823.38
2022-10-22T13:50:21.467Z,95825.63
2022-10-22T13:52:51.609Z,95812.53
2022-10-22T13:55:22.601Z,95818.69
2022-10-22T13:57:50.453Z,95823.47
2022-10-22T14:00:20.879Z,95834.03
2022-10-22T14:02:52.946Z,95830.63
2022-10-22T14:05:20.788Z,95835.41
2022-10-22T14:07:48.404Z,95835.19
2022-10-22T14:10:19.852Z,95838.72
2022-10-22T14:12:52.360Z,95835.84
2022-10-22T14:15:24.159Z,95837.91
2022-10-22T14:17:57.223Z,95838.34
2022-10-22T14:20:27.626Z,95825.28
2022-10-22T14:22:55.416Z,95832.13
2022-10-22T14:25:25.367Z,95828.81
2022-10-22T14:27:53.394Z,95831.25
2022-10-22T14:30:24.643Z,95826.84
2022-10-22T14:32:53.844Z,95830.44
2022-10-22T14:35:23.429Z,95831.69
2022-10-22T14:37:51.283Z,95823.16
2022-10-22T14:40:20.705Z,95834.50
2022-10-22T14:42:49.639Z,95837.50
2022-10-22T14:45:19.225Z,95837.97
2022-10-22T14:47:46.693Z,95833.19
2022-10-22T14:50:15.928Z,95833.78
2022-10-22T14:52:43.931Z,95831.34
2022-10-22T14:55:12.649Z,95825.81
2022-10-22T14:57:41.065Z,95833.19
2022-10-22T15:00:14.904Z,95827.69
2022-10-22T15:02:42.637Z,95839.78
2022-10-22T15:05:10.561Z,95833.06
2022-10-22T15:07:39.779Z,95845.84
2022-10-22T15:10:09.222Z,95843.41
2022-10-22T15:12:36.954Z,95843.50
2022-10-22T15:15:05.374Z,95845.56
2022-10-22T15:17:32.893Z,95838.72
2022-10-22T15:20:03.882Z,95847.22
2022-10-22T15:22:34.936Z,95846.69
2022-10-22T15:25:04.907Z,95849.19
2022-10-22T15:27:32.345Z,95848.38
2022-10-22T15:29:59.855Z,95849.94
2022-10-22T15:32:29.098Z,95849.22
2022-10-22T15:34:57.185Z,95838.88
2022-10-22T15:37:24.617Z,95850.47
2022-10-22T15:39:52.024Z,95855.94
2022-10-22T15:42:20.888Z,95864.03
2022-10-22T15:44:48.296Z,95866.16
2022-10-22T15:47:15.825Z,95858.66
2022-10-22T15:49:43.231Z,95858.16
2022-10-22T15:52:10.687Z,95857.91
2022-10-22T15:54:38.101Z,95867.00
2022-10-22T15:57:08.505Z,95861.28
2022-10-22T15:59:37.717Z,95866.13
2022-10-22T16:02:07.138Z,95862.78
2022-10-22T16:04:34.555Z,95859.66
2022-10-22T16:07:01.991Z,95862.41
2022-10-22T16:09:29.480Z,95866.50
2022-10-22T16:11:57.341Z,95866.00
2022-10-22T16:14:24.983Z,95874.50
2022-10-22T16:16:55.651Z,95859.94
2022-10-22T16:19:24.762Z,95874.69
2022-10-22T16:21:54.861Z,95867.69
2022-10-22T16:24:22.935Z,95843.72
2022-10-22T16:26:50.538Z,95863.00
2022-10-22T16:29:17.975Z,95873.88
2022-10-22T16:31:45.441Z,95867.13
2022-10-22T16:34:14.398Z,95867.06
2022-10-22T16:36:41.871Z,95867.88
2022-10-22T16:39:09.349Z,95864.78
2022-10-22T16:41:36.900Z,95870.59
2022-10-22T16:44:06.394Z,95875.66
2022-10-22T16:46:36.571Z,95872.41
2022-10-22T16:49:03.988Z,95871.44
2022-10-22T16:51:32.761Z,95874.59
2022-10-22T16:54:00.178Z,95874.88
2022-10-22T16:56:27.996Z,95880.91
2022-10-22T16:58:56.948Z,95881.16
2022-10-22T17:01:26.799Z,95878.03
2022-10-22T17:03:54.910Z,95886.44
2022-10-22T17:06:23.183Z,95890.44
2022-10-22T17:08:52.127Z,95895.69
2022-10-22T17:11:21.908Z,95887.59
2022-10-22T17:13:52.496Z,95892.78
2022-10-22T17:16:22.040Z,95891.72
2022-10-22T17:18:49.685Z,95900.38
2022-10-22T17:21:18.765Z,95901.41
2022-10-22T17:23:46.877Z,95899.84
2022-10-22T17:26:18.277Z,95901.69
2022-10-22T17:28:45.958Z,95910.34
2022-10-22T17:31:18.149Z,95899.88
2022-10-22T17:33:45.840Z,95890.97
2022-10-22T17:36:14.175Z,95898.59
2022-10-22T17:38:43.394Z,95898.31
2022-10-22T17:41:17.334Z,95892.56
2022-10-22T17:46:20.973Z,95900.19
2022-10-22T17:48:50.809Z,95901.22
2022-10-22T17:51:19.131Z,95906.47
2022-10-22T17:53:47.300Z,95905.13
2022-10-22T17:56:16.983Z,95882.38
2022-10-22T17:58:45.769Z,95889.72
2022-10-22T18:01:21.923Z,95898.84
2022-10-22T18:03:50.318Z,95900.19
2022-10-22T18:06:18.207Z,95898.84
2022-10-22T18:08:45.715Z,95900.94
2022-10-22T18:11:15.196Z,95898.09
2022-10-22T18:13:42.694Z,95894.69
2022-10-22T18:16:11.806Z,95898.09
2022-10-22T18:18:39.262Z,95886.28
2022-10-22T18:21:07.019Z,95892.03
2022-10-22T18:23:34.477Z,95877.13
2022-10-22T18:26:05.421Z,95887.59
2022-10-22T18:28:32.877Z,95892.03
2022-10-22T18:31:00.331Z,95877.91
2022-10-22T18:33:29.084Z,95887.06
2022-10-22T18:35:56.801Z,95890.97
2022-10-22T18:38:24.510Z,95898.59
2022-10-22T18:40:51.940Z,95894.66
2022-10-22T18:43:19.556Z,95896.22
2022-10-22T18:45:49.190Z,95892.53
2022-10-22T18:48:19.051Z,95899.63
2022-10-22T18:50:48.191Z,95902.25
2022-10-22T18:53:17.288Z,95893.88
2022-10-22T18:55:45.467Z,95890.44
2022-10-22T18:58:12.923Z,95896.19
2022-10-22T19:00:40.403Z,95900.66
2022-10-22T19:03:07.855Z,95897.50
2022-10-22T19:05:35.288Z,95890.19
2022-10-22T19:08:04.804Z,95902.19
2022-10-22T19:10:35.073Z,95894.34
2022-10-22T19:13:02.496Z,95890.19
2022-10-22T19:15:29.891Z,95891.22
2022-10-22T19:17:57.494Z,95881.78
2022-10-22T19:20:24.887Z,95888.34
2022-10-22T19:22:53.265Z,95892.03
2022-10-22T19:25:22.277Z,95895.66
2022-10-22T19:27:49.779Z,95898.56
2022-10-22T19:30:19.044Z,95889.16
2022-10-22T19:32:47.112Z,95895.94
2022-10-22T19:35:14.522Z,95901.19
2022-10-22T19:37:46.184Z,95893.31
2022-10-22T19:40:16.033Z,95886.00
2022-10-22T19:42:46.940Z,95890.72
2022-10-22T19:45:14.392Z,95900.88
2022-10-22T19:47:42.050Z,95891.75
2022-10-22T19:50:09.686Z,95895.69
2022-10-22T19:52:37.375Z,95887.56
2022-10-22T19:55:05.299Z,95898.00
2022-10-22T19:57:32.738Z,95895.16
2022-10-22T20:00:01.574Z,95893.84
2022-10-22T20:02:28.995Z,95898.31
2022-10-22T20:04:56.406Z,95901.16
2022-10-22T20:07:23.828Z,95890.94
2022-10-22T20:09:51.267Z,95906.41
2022-10-22T20:12:18.676Z,95899.06
2022-10-22T20:14:46.086Z,95900.09
2022-10-22T20:17:14.881Z,95890.97
2022-10-22T20:19:42.368Z,95880.53
2022-10-22T20:22:12.555Z,95885.47
2022-10-22T20:24:42.365Z,95896.19
2022-10-22T20:27:09.837Z,95895.13
2022-10-22T20:29:37.276Z,95894.34
2022-10-22T20:32:06.757Z,95882.59
2022-10-22T20:34:38.028Z,95887.28
2022-10-22T20:37:05.456Z,95879.44
2022-10-22T20:39:32.880Z,95881.81
2022-10-22T20:42:00.307Z,95883.09
2022-10-22T20:44:27.721Z,95888.88
2022-10-22T20:46:55.171Z,95881.03
2022-10-22T20:49:22.623Z,95886.28
2022-10-22T20:51:51.520Z,95892.00
2022-10-22T20:54:19.071Z,95898.53
2022-10-22T20:56:47.784Z,95897.78
2022-10-22T20:59:15.849Z,95901.97
2022-10-22T21:01:47.276Z,95905.63
2022-10-22T21:04:15.289Z,95911.09
2022-10-22T21:06:43.281Z,95886.22
2022-10-22T21:09:13.331Z,95907.13
2022-10-22T21:11:42.159Z,95922.28
2022-10-22T21:14:11.649Z,95923.56
2022-10-22T21:16:41.575Z,95921.22
2022-10-22T21:19:09.029Z,95905.25
2022-10-22T21:21:36.566Z,95920.19
2022-10-22T21:24:04.336Z,95918.06
2022-10-22T21:26:33.148Z,95919.13
2022-10-22T21:29:00.570Z,95908.66
2022-10-22T21:31:27.991Z,95920.94
2022-10-22T21:33:55.530Z,95928.53
2022-10-22T21:36:23.771Z,95924.06
2022-10-22T21:38:51.940Z,95923.81
2022-10-22T21:41:21.958Z,95910.22
2022-10-22T21:43:51.844Z,95915.69
2022-10-22T21:46:21.006Z,95910.75
2022-10-22T21:48:48.935Z,95911.78
2022-10-22T21:51:18.356Z,95903.91
2022-10-22T21:53:46.872Z,95884.75
2022-10-22T21:56:16.217Z,95904.13
2022-10-22T21:58:44.006Z,95907.03
2022-10-22T22:01:14.402Z,95902.34
2022-10-22T22:03:42.511Z,95907.03
2022-10-22T22:06:10.486Z,95904.16
2022-10-22T22:08:38.200Z,95908.59
2022-10-22T22:11:07.577Z,95905.13
2022-10-22T22:13:35.319Z,95891.84
2022-10-22T22:16:04.418Z,95877.22
2022-10-22T22:18:33.938Z,95869.09
2022-10-22T22:21:05.398Z,95890.03
2022-10-22T22:23:33.106Z,95888.19
2022-10-22T22:26:01.592Z,95886.63
2022-10-22T22:28:30.765Z,95894.19
2022-10-22T22:30:58.670Z,95895.56
2022-10-22T22:33:26.578Z,95890.03
2022-10-22T22:35:59.084Z,95890.81
2022-10-22T22:38:26.555Z,95886.09
2022-10-22T22:40:54.019Z,95876.69
2022-10-22T22:43:21.439Z,95879.81
2022-10-22T22:45:48.860Z,95878.50
2022-10-22T22:48:16.280Z,95863.66
2022-10-22T22:50:43.681Z,95869.41
2022-10-22T22:53:12.434Z,95872.03
2022-10-22T22:55:39.849Z,95871.78
2022-10-22T22:58:07.263Z,95871.25
2022-10-22T23:00:34.899Z,95865.78
2022-10-22T23:03:02.377Z,95877.00
2022-10-22T23:05:29.781Z,95872.03
2022-10-22T23:07:57.552Z,95881.19
2022-10-22T23:10:26.381Z,95880.16
2022-10-22T23:12:53.829Z,95877.03
2022-10-22T23:15:21.235Z,95850.09
2022-10-22T23:17:48.624Z,95870.00
2022-10-22T23:20:16.104Z,95855.34
2022-10-22T23:22:43.748Z,95864.75
2022-10-22T23:25:11.434Z,95868.41
2022-10-22T23:27:40.377Z,95871.53
2022-10-22T23:30:09.655Z,95868.94
2022-10-22T23:32:37.189Z,95857.44
2022-10-22T23:35:04.952Z,95861.09
2022-10-22T23:37:32.378Z,95853.28
2022-10-22T23:39:59.795Z,95861.34
2022-10-22T23:42:27.306Z,95845.41
2022-10-22T23:44:56.200Z,95847.75
2022-10-22T23:47:23.655Z,95845.94
2022-10-22T23:49:51.073Z,95834.44
2022-10-22T23:52:18.517Z,95842.53
2022-10-22T23:54:45.920Z,95845.16
2022-10-22T23:57:13.325Z,95847.03
2022-10-22T23:59:40.760Z,95837.34
